createdAt,value
2023-04-29T00:01:15.074Z,3.75
2023-04-29T00:03:44.445Z,4.25
2023-04-29T00:06:12.719Z,4.50
2023-04-29T00:08:42.122Z,2.75
2023-04-29T00:11:11.488Z,3.25
2023-04-29T00:13:40.902Z,3.75
2023-04-29T00:16:10.206Z,3.75
2023-04-29T00:18:38.389Z,3.75
2023-04-29T00:21:07.098Z,3.00
2023-04-29T00:23:35.362Z,3.75
2023-04-29T00:26:04.692Z,3.75
2023-04-29T00:28:32.610Z,2.75
2023-04-29T00:31:00.668Z,3.25
2023-04-29T00:33:28.613Z,3.75
2023-04-29T00:35:56.530Z,3.00
2023-04-29T00:38:24.448Z,2.50
2023-04-29T00:40:52.556Z,3.00
2023-04-29T00:43:22.444Z,3.25
2023-04-29T00:45:51.095Z,2.75
2023-04-29T00:48:19.069Z,3.25
2023-04-29T00:50:47.206Z,3.25
2023-04-29T00:53:15.375Z,2.75
2023-04-29T00:55:43.316Z,2.75
2023-04-29T00:58:11.851Z,3.75
2023-04-29T01:00:41.572Z,3.25
2023-04-29T01:03:10.285Z,3.50
2023-04-29T01:05:38.408Z,3.00
2023-04-29T01:08:18.323Z,3.25
2023-04-29T01:10:50.088Z,3.00
2023-04-29T01:13:19.437Z,4.00
2023-04-29T01:15:51.168Z,3.75
2023-04-29T01:18:21.578Z,3.75
2023-04-29T01:20:49.492Z,5.50
2023-04-29T01:23:17.679Z,4.00
2023-04-29T01:25:48.979Z,4.00
2023-04-29T01:28:22.726Z,5.00
2023-04-29T01:30:52.060Z,5.00
2023-04-29T01:33:24.265Z,5.75
2023-04-29T01:36:01.916Z,4.00
2023-04-29T01:38:34.020Z,5.50
2023-04-29T01:41:09.057Z,4.50
2023-04-29T01:43:37.427Z,5.75
2023-04-29T01:46:06.216Z,5.75
2023-04-29T01:48:34.191Z,6.00
2023-04-29T01:51:02.766Z,6.00
2023-04-29T01:53:30.970Z,6.00
2023-04-29T01:55:58.874Z,6.00
2023-04-29T01:58:28.226Z,6.00
2023-04-29T02:00:56.274Z,6.00
2023-04-29T02:03:24.765Z,6.00
2023-04-29T02:05:52.962Z,6.50
2023-04-29T02:08:20.860Z,6.75
2023-04-29T02:10:55.192Z,5.50
2023-04-29T02:13:23.386Z,6.50
2023-04-29T02:15:52.713Z,6.00
2023-04-29T02:18:20.661Z,6.00
2023-04-29T02:20:50.656Z,6.00
2023-04-29T02:23:18.939Z,6.25
2023-04-29T02:25:46.867Z,6.00
2023-04-29T02:28:14.753Z,6.00
2023-04-29T02:30:42.617Z,7.00
2023-04-29T02:33:12.042Z,7.00
2023-04-29T02:35:40.018Z,7.00
2023-04-29T02:38:07.907Z,6.75
2023-04-29T02:40:35.846Z,6.00
2023-04-29T02:43:04.647Z,6.25
2023-04-29T02:45:32.611Z,7.25
2023-04-29T02:48:00.661Z,7.25
2023-04-29T02:50:30.326Z,7.00
2023-04-29T02:52:58.775Z,7.00
2023-04-29T02:55:26.973Z,6.25
2023-04-29T02:57:54.897Z,5.75
2023-04-29T03:00:23.659Z,8.00
2023-04-29T03:02:51.987Z,6.00
2023-04-29T03:05:20.279Z,7.50
2023-04-29T03:07:49.628Z,6.75
2023-04-29T03:10:18.217Z,7.25
2023-04-29T03:12:46.438Z,6.00
2023-04-29T03:15:14.368Z,6.25
2023-04-29T03:17:42.319Z,6.00
2023-04-29T03:20:11.716Z,6.00
2023-04-29T03:22:39.947Z,7.00
2023-04-29T03:25:10.713Z,6.25
2023-04-29T03:27:39.044Z,7.00
2023-04-29T03:30:10.413Z,6.25
2023-04-29T03:32:38.379Z,6.00
2023-04-29T03:35:07.239Z,7.00
2023-04-29T03:37:35.268Z,6.00
2023-04-29T03:40:03.255Z,6.00
2023-04-29T03:42:32.935Z,7.00
2023-04-29T03:45:00.823Z,6.75
2023-04-29T03:47:28.826Z,6.00
2023-04-29T03:49:56.719Z,6.50
2023-04-29T03:52:24.672Z,5.50
2023-04-29T03:54:52.541Z,6.50
2023-04-29T03:57:20.460Z,6.00
2023-04-29T03:59:50.635Z,6.00
2023-04-29T04:02:19.651Z,5.00
2023-04-29T04:04:47.911Z,6.00
2023-04-29T04:07:15.964Z,6.00
2023-04-29T04:09:43.874Z,6.00
2023-04-29T04:12:11.792Z,5.25
2023-04-29T04:14:39.677Z,5.25
2023-04-29T04:17:08.991Z,6.00
2023-04-29T04:19:36.949Z,6.00
2023-04-29T04:22:04.950Z,6.75
2023-04-29T04:24:33.134Z,6.00
2023-04-29T04:27:01.100Z,5.75
2023-04-29T04:29:29.054Z,6.25
2023-04-29T04:31:58.319Z,5.00
2023-04-29T04:34:27.648Z,5.00
2023-04-29T04:36:55.701Z,6.00
2023-04-29T04:39:23.624Z,5.25
2023-04-29T04:41:51.586Z,5.00
2023-04-29T04:44:19.818Z,7.00
2023-04-29T04:46:47.910Z,5.00
2023-04-29T04:49:15.911Z,6.25
2023-04-29T04:51:46.604Z,5.25
2023-04-29T04:54:14.783Z,5.75
2023-04-29T04:56:42.632Z,5.25
2023-04-29T04:59:10.557Z,6.00
2023-04-29T05:01:38.597Z,5.25
2023-04-29T05:04:07.213Z,5.00
2023-04-29T05:06:35.317Z,6.00
2023-04-29T05:09:04.944Z,6.00
2023-04-29T05:11:32.853Z,5.75
2023-04-29T05:14:01.142Z,6.00
2023-04-29T05:16:29.133Z,5.00
2023-04-29T05:18:57.076Z,5.75
2023-04-29T05:21:25.035Z,5.00
2023-04-29T05:23:53.204Z,4.75
2023-04-29T05:26:22.470Z,4.00
2023-04-29T05:28:50.350Z,5.00
2023-04-29T05:31:18.326Z,4.50
2023-04-29T05:33:46.270Z,4.50
2023-04-29T05:36:14.222Z,4.75
2023-04-29T05:38:42.698Z,5.00
2023-04-29T05:41:10.702Z,4.00
2023-04-29T05:43:40.254Z,5.00
2023-04-29T05:46:08.207Z,4.00
2023-04-29T05:48:36.262Z,5.00
2023-04-29T05:51:04.137Z,4.00
2023-04-29T05:53:33.323Z,4.00
2023-04-29T05:56:04.827Z,4.25
2023-04-29T05:58:32.746Z,4.00
2023-04-29T06:01:02.053Z,4.25
2023-04-29T06:03:31.309Z,4.00
2023-04-29T06:05:59.714Z,4.00
2023-04-29T06:08:28.066Z,4.00
2023-04-29T06:10:56.503Z,4.00
2023-04-29T06:13:25.128Z,4.25
2023-04-29T06:15:53.593Z,3.75
2023-04-29T06:18:23.566Z,4.00
2023-04-29T06:20:51.998Z,4.00
2023-04-29T06:23:20.523Z,4.00
2023-04-29T06:25:50.208Z,3.25
2023-04-29T06:28:21.038Z,3.25
2023-04-29T06:30:50.289Z,4.00
2023-04-29T06:33:18.719Z,5.00
2023-04-29T06:35:48.374Z,5.00
2023-04-29T06:38:16.695Z,3.50
2023-04-29T06:40:44.830Z,4.00
2023-04-29T06:43:14.430Z,3.75
2023-04-29T06:45:42.677Z,4.00
2023-04-29T06:48:10.921Z,5.00
2023-04-29T06:50:39.428Z,4.00
2023-04-29T06:53:15.608Z,4.00
2023-04-29T06:55:43.741Z,5.00
2023-04-29T06:58:12.106Z,4.00
2023-04-29T07:00:40.347Z,4.00
2023-04-29T07:03:10.012Z,4.25
2023-04-29T07:05:39.343Z,4.50
2023-04-29T07:08:07.300Z,4.00
2023-04-29T07:10:36.656Z,4.50
2023-04-29T07:13:05.063Z,4.75
2023-04-29T07:15:35.471Z,4.00
2023-04-29T07:18:05.061Z,5.00
2023-04-29T07:20:32.989Z,4.00
2023-04-29T07:23:01.220Z,4.00
2023-04-29T07:25:29.901Z,3.25
2023-04-29T07:27:59.333Z,3.00
2023-04-29T07:30:27.376Z,4.25
2023-04-29T07:32:55.369Z,3.75
2023-04-29T07:35:23.292Z,3.50
2023-04-29T07:37:51.381Z,4.00
2023-04-29T07:40:19.299Z,3.25
2023-04-29T07:42:47.472Z,4.00
2023-04-29T07:45:16.859Z,3.75
2023-04-29T07:47:45.927Z,3.00
2023-04-29T07:50:14.203Z,3.75
2023-04-29T07:52:42.977Z,4.75
2023-04-29T07:55:10.947Z,4.00
2023-04-29T07:57:38.873Z,4.00
2023-04-29T08:00:10.872Z,3.00
2023-04-29T08:02:40.586Z,3.25
2023-04-29T08:05:09.415Z,3.00
2023-04-29T08:07:37.624Z,4.00
2023-04-29T08:10:06.313Z,3.00
2023-04-29T08:12:34.303Z,4.00
2023-04-29T08:15:02.213Z,3.00
2023-04-29T08:17:30.157Z,3.00
2023-04-29T08:19:59.501Z,3.00
2023-04-29T08:22:27.651Z,4.25
2023-04-29T08:24:55.960Z,4.00
2023-04-29T08:27:24.196Z,3.25
2023-04-29T08:29:52.211Z,4.00
2023-04-29T08:32:20.608Z,3.25
2023-04-29T08:34:48.498Z,4.50
2023-04-29T08:37:18.672Z,4.00
2023-04-29T08:39:48.027Z,3.25
2023-04-29T08:42:15.994Z,3.75
2023-04-29T08:44:44.220Z,3.00
2023-04-29T08:47:12.126Z,3.00
2023-04-29T08:49:40.058Z,3.75
2023-04-29T08:52:08.011Z,4.00
2023-04-29T08:54:37.590Z,4.00
2023-04-29T08:57:05.532Z,3.75
2023-04-29T08:59:33.469Z,3.00
2023-04-29T09:02:01.541Z,4.00
2023-04-29T09:04:33.616Z,3.00
2023-04-29T09:07:01.532Z,4.00
2023-04-29T09:09:29.997Z,4.00
2023-04-29T09:11:59.337Z,4.00
2023-04-29T09:14:27.556Z,3.00
2023-04-29T09:16:55.548Z,4.00
2023-04-29T09:19:30.960Z,4.00
2023-04-29T09:21:58.929Z,4.00
2023-04-29T09:24:27.609Z,3.75
2023-04-29T09:26:55.698Z,3.00
2023-04-29T09:29:25.025Z,4.00
2023-04-29T09:31:53.577Z,3.00
2023-04-29T09:34:32.237Z,4.00
2023-04-29T09:37:00.154Z,5.00
2023-04-29T09:39:28.032Z,4.00
2023-04-29T09:42:00.335Z,6.00
2023-04-29T09:44:33.672Z,4.75
2023-04-29T09:47:03.927Z,4.00
2023-04-29T09:49:32.864Z,5.25
2023-04-29T09:52:02.028Z,6.00
2023-04-29T09:54:31.191Z,5.00
2023-04-29T09:56:59.666Z,6.00
2023-04-29T09:59:28.996Z,6.00
2023-04-29T10:01:58.625Z,6.00
2023-04-29T10:04:28.021Z,7.00
2023-04-29T10:06:56.810Z,7.00
2023-04-29T10:09:25.049Z,7.75
2023-04-29T10:11:53.556Z,7.00
2023-04-29T10:14:22.705Z,7.00
2023-04-29T10:16:54.640Z,8.00
2023-04-29T10:19:28.333Z,8.00
2023-04-29T10:21:56.630Z,8.50
2023-04-29T10:24:24.639Z,7.50
2023-04-29T10:26:53.246Z,8.00
2023-04-29T10:29:21.152Z,8.75
2023-04-29T10:31:49.161Z,9.00
2023-04-29T10:34:19.675Z,9.50
2023-04-29T10:36:48.100Z,10.00
2023-04-29T10:39:22.936Z,9.00
2023-04-29T10:41:51.206Z,9.25
2023-04-29T10:44:20.410Z,9.00
2023-04-29T10:46:48.765Z,9.75
2023-04-29T10:49:16.790Z,10.50
2023-04-29T10:51:46.378Z,9.25
2023-04-29T10:54:17.282Z,10.00
2023-04-29T10:56:46.578Z,10.00
2023-04-29T10:59:15.097Z,10.00
2023-04-29T11:01:47.586Z,10.75
2023-04-29T11:04:15.861Z,10.00
2023-04-29T11:06:46.457Z,11.25
2023-04-29T11:09:16.142Z,11.75
2023-04-29T11:11:59.273Z,10.00
2023-04-29T11:14:27.939Z,10.00
2023-04-29T11:16:57.650Z,11.50
2023-04-29T11:19:26.890Z,11.00
2023-04-29T11:22:17.821Z,11.00
2023-04-29T11:24:53.457Z,11.50
2023-04-29T11:27:25.380Z,10.50
2023-04-29T11:29:55.831Z,10.00
2023-04-29T11:32:25.294Z,12.00
2023-04-29T11:34:53.665Z,11.00
2023-04-29T11:37:24.100Z,11.75
2023-04-29T11:39:52.294Z,12.50
2023-04-29T11:42:23.342Z,11.00
2023-04-29T11:44:55.004Z,10.25
2023-04-29T11:47:23.141Z,10.50
2023-04-29T11:49:51.048Z,11.00
2023-04-29T11:52:18.948Z,11.50
2023-04-29T11:54:48.235Z,11.00
2023-04-29T11:57:16.145Z,11.00
2023-04-29T11:59:44.152Z,11.25
2023-04-29T12:02:13.563Z,11.00
2023-04-29T12:04:51.187Z,10.25
2023-04-29T12:07:19.451Z,10.00
2023-04-29T12:09:48.877Z,10.25
2023-04-29T12:12:17.021Z,10.00
2023-04-29T12:14:45.277Z,10.50
2023-04-29T12:17:13.187Z,9.75
2023-04-29T12:19:41.993Z,10.50
2023-04-29T12:22:09.959Z,11.00
2023-04-29T12:24:38.560Z,9.00
2023-04-29T12:27:09.659Z,10.00
2023-04-29T12:29:37.598Z,10.25
2023-04-29T12:32:05.627Z,10.75
2023-04-29T12:34:33.910Z,10.00
2023-04-29T12:37:02.079Z,10.00
2023-04-29T12:39:30.238Z,9.00
2023-04-29T12:41:59.349Z,10.50
2023-04-29T12:44:36.566Z,10.00
2023-04-29T12:47:09.670Z,9.50
2023-04-29T12:49:38.300Z,10.50
2023-04-29T12:52:09.560Z,10.75
2023-04-29T12:54:37.960Z,10.00
2023-04-29T12:57:05.978Z,8.75
2023-04-29T12:59:35.926Z,10.00
2023-04-29T13:02:03.903Z,10.00
2023-04-29T13:04:32.541Z,10.00
2023-04-29T13:07:01.414Z,9.00
2023-04-29T13:09:29.306Z,10.00
2023-04-29T13:11:57.778Z,10.00
2023-04-29T13:14:26.133Z,9.00
2023-04-29T13:16:55.450Z,10.00
2023-04-29T13:21:54.320Z,9.25
2023-04-29T13:24:22.663Z,9.75
2023-04-29T13:26:52.633Z,10.25
2023-04-29T13:29:20.948Z,8.25
2023-04-29T13:31:48.925Z,10.25
2023-04-29T13:34:18.772Z,9.00
2023-04-29T13:36:46.868Z,9.00
2023-04-29T13:39:15.109Z,9.25
2023-04-29T13:41:45.965Z,9.00
2023-04-29T13:44:27.090Z,9.75
2023-04-29T13:46:58.861Z,9.25
2023-04-29T13:49:58.551Z,9.00
2023-04-29T13:55:12.188Z,9.50
2023-04-29T13:58:08.160Z,8.50
2023-04-29T14:05:27.056Z,8.50
2023-04-29T14:07:55.117Z,9.50
2023-04-29T14:10:23.237Z,9.50
2023-04-29T14:12:51.625Z,9.00
2023-04-29T14:15:19.533Z,9.50
2023-04-29T14:17:47.496Z,8.50
2023-04-29T14:20:15.454Z,9.00
2023-04-29T14:22:45.331Z,10.00
2023-04-29T14:25:13.754Z,10.00
2023-04-29T14:27:42.103Z,9.25
2023-04-29T14:30:11.642Z,9.50
2023-04-29T14:32:39.671Z,9.25
2023-04-29T14:35:09.672Z,10.00
2023-04-29T14:37:37.664Z,9.25
2023-04-29T14:40:09.370Z,9.00
2023-04-29T14:42:37.324Z,8.25
2023-04-29T14:45:09.265Z,8.75
2023-04-29T14:47:37.255Z,8.00
2023-04-29T14:50:05.742Z,8.75
2023-04-29T14:52:34.127Z,9.50
2023-04-29T14:55:02.068Z,9.00
2023-04-29T14:57:31.457Z,9.75
2023-04-29T14:59:59.398Z,9.00
2023-04-29T15:02:27.688Z,8.00
2023-04-29T15:04:55.989Z,9.00
2023-04-29T15:07:24.212Z,9.75
2023-04-29T15:09:54.661Z,9.00
2023-04-29T15:12:24.533Z,8.25
2023-04-29T15:14:54.100Z,8.75
2023-04-29T15:17:22.268Z,7.75
2023-04-29T15:19:50.239Z,8.25
2023-04-29T15:22:19.453Z,8.75
2023-04-29T15:27:16.778Z,8.75
2023-04-29T15:29:45.744Z,9.75
2023-04-29T15:32:15.626Z,9.75
2023-04-29T15:34:43.620Z,10.00
2023-04-29T15:37:12.679Z,9.00
2023-04-29T15:39:40.629Z,9.50
2023-04-29T15:42:09.488Z,9.00
2023-04-29T15:44:38.023Z,10.00
2023-04-29T15:47:05.978Z,9.50
2023-04-29T15:49:35.327Z,8.75
2023-04-29T15:52:03.562Z,10.00
2023-04-29T15:54:31.822Z,8.75
2023-04-29T15:56:59.755Z,9.25
2023-04-29T15:59:27.797Z,8.75
2023-04-29T16:01:55.688Z,7.75
2023-04-29T16:04:23.992Z,9.00
2023-04-29T16:06:53.562Z,10.50
2023-04-29T16:09:21.718Z,9.00
2023-04-29T16:11:49.650Z,10.00
2023-04-29T16:14:17.911Z,9.75
2023-04-29T16:16:45.942Z,9.00
2023-04-29T16:19:14.945Z,9.00
2023-04-29T16:21:45.496Z,9.00
2023-04-29T16:24:14.818Z,9.00
2023-04-29T16:26:42.740Z,9.50
2023-04-29T16:29:12.446Z,10.00
2023-04-29T16:31:40.547Z,7.75
2023-04-29T16:34:08.681Z,8.00
2023-04-29T16:36:36.631Z,9.75
2023-04-29T16:39:05.195Z,8.75
2023-04-29T16:41:34.530Z,8.75
2023-04-29T16:44:02.968Z,9.00
2023-04-29T16:46:32.430Z,8.25
2023-04-29T16:49:00.655Z,9.50
2023-04-29T16:51:29.248Z,9.00
2023-04-29T16:53:57.765Z,8.00
2023-04-29T16:56:25.790Z,8.75
2023-04-29T16:58:55.173Z,9.25
2023-04-29T17:01:23.096Z,8.25
2023-04-29T17:03:51.578Z,9.00
2023-04-29T17:06:19.769Z,8.00
2023-04-29T17:08:50.092Z,9.25
2023-04-29T17:11:19.390Z,8.50
2023-04-29T17:13:47.650Z,7.75
2023-04-29T17:16:17.067Z,9.00
2023-04-29T17:18:45.027Z,8.75
2023-04-29T17:21:12.935Z,9.00
2023-04-29T17:23:41.108Z,8.25
2023-04-29T17:26:09.253Z,8.75
2023-04-29T17:28:37.145Z,7.75
2023-04-29T17:31:06.309Z,8.00
2023-04-29T17:33:36.012Z,8.50
2023-04-29T17:36:04.082Z,9.75
2023-04-29T17:38:33.108Z,8.75
2023-04-29T17:41:01.157Z,8.75
2023-04-29T17:43:33.203Z,8.50
2023-04-29T17:46:01.270Z,8.00
2023-04-29T17:48:29.265Z,8.00
2023-04-29T17:50:58.988Z,8.00
2023-04-29T17:53:28.628Z,8.25
2023-04-29T17:55:56.812Z,9.00
2023-04-29T17:58:25.130Z,9.00
2023-04-29T18:00:53.347Z,7.75
2023-04-29T18:03:23.661Z,8.50
2023-04-29T18:05:51.699Z,8.25
2023-04-29T18:08:21.291Z,8.25
2023-04-29T18:10:49.194Z,8.50
2023-04-29T18:13:17.537Z,8.00
2023-04-29T18:15:45.459Z,7.00
2023-04-29T18:18:13.421Z,7.50
2023-04-29T18:20:43.785Z,8.75
2023-04-29T18:23:12.285Z,7.50
2023-04-29T18:25:43.334Z,7.50
2023-04-29T18:28:23.541Z,7.00
2023-04-29T18:30:53.041Z,7.00
2023-04-29T18:33:21.480Z,7.00
2023-04-29T18:35:49.492Z,8.00
2023-04-29T18:38:17.537Z,7.25
2023-04-29T18:40:46.974Z,6.00
2023-04-29T18:43:18.065Z,6.25
2023-04-29T18:45:46.160Z,7.00
2023-04-29T18:48:15.046Z,7.50
2023-04-29T18:50:43.114Z,8.75
2023-04-29T18:53:11.028Z,7.50
2023-04-29T18:55:39.051Z,8.00
2023-04-29T18:58:09.276Z,8.00
2023-04-29T19:00:37.159Z,8.00
2023-04-29T19:03:06.206Z,7.25
2023-04-29T19:05:34.661Z,7.75
2023-04-29T19:08:02.565Z,7.75
2023-04-29T19:10:30.596Z,8.00
2023-04-29T19:12:58.848Z,9.50
2023-04-29T19:15:28.435Z,7.75
2023-04-29T19:17:56.614Z,8.00
2023-04-29T19:20:24.588Z,7.00
2023-04-29T19:22:54.993Z,7.75
2023-04-29T19:25:26.250Z,6.75
2023-04-29T19:27:57.553Z,7.50
2023-04-29T19:33:52.352Z,8.25
2023-04-29T19:36:20.374Z,8.00
2023-04-29T19:38:49.217Z,7.25
2023-04-29T19:41:17.228Z,7.00
2023-04-29T19:43:47.016Z,6.50
2023-04-29T19:46:16.372Z,8.00
2023-04-29T19:48:44.299Z,8.00
2023-04-29T19:51:12.272Z,8.75
2023-04-29T19:53:40.935Z,8.50
2023-04-29T19:56:09.314Z,7.50
2023-04-29T19:58:37.333Z,7.75
2023-04-29T20:01:06.012Z,9.75
2023-04-29T20:03:39.261Z,7.75
2023-04-29T20:06:07.759Z,8.00
2023-04-29T20:08:35.703Z,8.25
2023-04-29T20:11:04.661Z,8.00
2023-04-29T20:13:32.600Z,8.75
2023-04-29T20:16:00.592Z,9.50
2023-04-29T20:18:28.600Z,10.00
2023-04-29T20:20:57.900Z,10.00
2023-04-29T20:23:26.258Z,11.00
2023-04-29T20:25:54.256Z,10.25
2023-04-29T20:28:22.258Z,10.25
2023-04-29T20:30:53.160Z,11.25
2023-04-29T20:33:23.073Z,11.00
2023-04-29T20:35:51.841Z,12.50
2023-04-29T20:38:22.544Z,10.75
2023-04-29T20:40:53.810Z,13.50
2023-04-29T20:43:21.948Z,10.75
2023-04-29T20:45:50.795Z,11.00
2023-04-29T20:48:18.964Z,11.25
2023-04-29T20:50:48.270Z,14.50
2023-04-29T20:53:16.774Z,13.00
2023-04-29T20:55:46.637Z,13.75
2023-04-29T20:58:16.349Z,12.75
2023-04-29T21:00:44.405Z,13.25
2023-04-29T21:03:15.937Z,13.75
2023-04-29T21:05:43.944Z,12.50
2023-04-29T21:08:12.032Z,11.00
2023-04-29T21:10:40.072Z,14.00
2023-04-29T21:13:09.646Z,13.00
2023-04-29T21:15:37.635Z,12.50
2023-04-29T21:18:05.949Z,13.25
2023-04-29T21:20:33.880Z,12.50
2023-04-29T21:23:02.367Z,14.75
2023-04-29T21:25:30.312Z,14.25
2023-04-29T21:27:58.245Z,12.75
2023-04-29T21:30:27.558Z,14.00
2023-04-29T21:32:55.595Z,13.50
2023-04-29T21:35:23.696Z,13.75
2023-04-29T21:37:51.730Z,14.75
2023-04-29T21:40:19.914Z,13.75
2023-04-29T21:42:47.838Z,14.25
2023-04-29T21:45:16.126Z,15.00
2023-04-29T21:47:45.512Z,13.75
2023-04-29T21:50:13.573Z,16.00
2023-04-29T21:52:41.746Z,14.00
2023-04-29T21:55:10.493Z,17.00
2023-04-29T21:57:44.403Z,16.75
2023-04-29T22:00:33.084Z,16.00
2023-04-29T22:03:03.734Z,17.25
2023-04-29T22:05:31.670Z,17.00
2023-04-29T22:08:00.378Z,14.50
2023-04-29T22:10:28.351Z,17.75
2023-04-29T22:12:57.528Z,16.00
2023-04-29T22:15:28.564Z,17.00
2023-04-29T22:17:58.056Z,15.75
2023-04-29T22:20:27.456Z,17.00
2023-04-29T22:22:56.033Z,18.75
2023-04-29T22:25:24.026Z,16.50
2023-04-29T22:27:51.959Z,17.00
2023-04-29T22:30:20.782Z,16.50
2023-04-29T22:32:48.991Z,15.50
2023-04-29T22:35:17.121Z,16.00
2023-04-29T22:37:46.459Z,16.75
2023-04-29T22:40:15.063Z,17.00
2023-04-29T22:42:43.086Z,15.25
2023-04-29T22:45:12.360Z,15.75
2023-04-29T22:47:40.399Z,16.00
2023-04-29T22:50:09.318Z,14.50
2023-04-29T22:52:37.532Z,15.25
2023-04-29T22:55:07.882Z,15.00
2023-04-29T22:57:35.787Z,14.00
2023-04-29T23:00:03.911Z,13.75
2023-04-29T23:02:31.827Z,14.50
2023-04-29T23:04:59.866Z,15.00
2023-04-29T23:07:27.913Z,15.50
2023-04-29T23:09:56.057Z,15.25
2023-04-29T23:12:25.521Z,14.75
2023-04-29T23:14:53.587Z,14.00
2023-04-29T23:17:21.488Z,13.00
2023-04-29T23:19:49.401Z,13.50
2023-04-29T23:22:17.743Z,13.75
2023-04-29T23:24:45.849Z,13.50
2023-04-29T23:27:13.797Z,12.75
2023-04-29T23:29:43.036Z,13.50
2023-04-29T23:32:11.186Z,13.25
2023-04-29T23:34:39.277Z,12.50
2023-04-29T23:37:07.151Z,13.25
2023-04-29T23:39:35.123Z,12.75
2023-04-29T23:42:03.718Z,13.00
2023-04-29T23:44:31.883Z,12.00
2023-04-29T23:47:01.146Z,12.00
2023-04-29T23:49:29.069Z,11.25
2023-04-29T23:51:56.966Z,10.00
2023-04-29T23:54:27.835Z,11.75
2023-04-29T23:56:58.591Z,11.00
2023-04-29T23:59:30.480Z,11.00
